Time;durP1;ratioP1;P1;durP2;ratioP2;P2;SDS_P1;SDS_P2;PMS_P1;PMS_P2;Temp;Humidity;BMP_temperature;BMP_pressure;BME280_temperature;BME280_humidity;BME280_pressure;Samples;Min_cycle;Max_cycle;Signal;HPM_P1;HPM_P2
2021/05/24 00:01:25;;;;;;;2.15;1.20;;;;;;;5.78;78.93;99024.13;5045429;28;20408;-79
2021/05/24 00:03:51;;;;;;;1.98;1.23;;;;;;;5.83;78.39;99024.50;5048348;28;20057;-79
2021/05/24 00:06:17;;;;;;;1.55;1.25;;;;;;;5.82;78.72;99012.00;5036083;28;20658;-79
2021/05/24 00:08:43;;;;;;;1.20;1.10;;;;;;;5.85;78.45;99013.53;5054963;28;20041;-79
2021/05/24 00:11:10;;;;;;;3.42;1.30;;;;;;;5.82;78.34;99016.56;5054654;28;20555;-79
2021/05/24 00:13:44;;;;;;;0.88;0.88;;;;;;;5.74;78.61;99022.75;5053984;28;20049;-79
2021/05/24 00:16:11;;;;;;;1.42;1.27;;;;;;;5.82;78.34;99008.47;5054449;28;20045;-79
2021/05/24 00:18:37;;;;;;;3.10;1.20;;;;;;;5.69;78.81;99000.81;5043681;28;20041;-79
2021/05/24 00:21:04;;;;;;;3.75;1.10;;;;;;;5.77;77.61;99006.25;5054588;28;20045;-78
2021/05/24 00:23:30;;;;;;;2.25;1.40;;;;;;;5.71;77.88;99004.19;5054456;28;20052;-79
2021/05/24 00:25:56;;;;;;;4.40;1.00;;;;;;;5.59;78.20;98987.41;5054139;28;20488;-79
2021/05/24 00:28:23;;;;;;;3.20;1.27;;;;;;;5.56;78.10;98982.31;5054551;28;20048;-79
2021/05/24 00:30:50;;;;;;;1.85;1.27;;;;;;;5.53;78.59;98993.44;5054434;28;20110;-79
2021/05/24 00:33:18;;;;;;;1.83;1.40;;;;;;;5.37;79.09;98975.25;5054236;28;20049;-79
2021/05/24 00:35:44;;;;;;;3.65;1.33;;;;;;;5.42;78.56;98961.31;5053680;28;20053;-79
2021/05/24 00:38:10;;;;;;;2.70;1.55;;;;;;;5.47;78.79;98981.41;5054075;28;20060;-79
2021/05/24 00:40:38;;;;;;;3.00;1.40;;;;;;;5.43;79.61;98981.88;5054015;28;20065;-79
2021/05/24 00:43:07;;;;;;;1.77;1.40;;;;;;;5.37;79.90;98977.13;5053915;28;20049;-79
2021/05/24 00:45:35;;;;;;;3.88;1.48;;;;;;;5.48;79.56;98993.06;5052903;28;20056;-78
2021/05/24 00:48:03;;;;;;;2.13;1.60;;;;;;;5.45;79.29;98985.25;5053942;28;20049;-79
2021/05/24 00:50:29;;;;;;;2.80;1.38;;;;;;;5.53;78.59;98979.13;5053776;28;20045;-79
2021/05/24 00:52:55;;;;;;;1.60;1.40;;;;;;;5.40;78.91;98961.47;5053848;28;20049;-79
2021/05/24 00:55:22;;;;;;;2.60;1.65;;;;;;;5.39;78.83;98965.19;5053171;28;20045;-79
2021/05/24 00:57:48;;;;;;;3.40;2.05;;;;;;;5.25;79.30;98955.78;5045002;28;20100;-79
2021/05/24 01:00:27;;;;;;;4.32;1.75;;;;;;;5.17;79.74;98952.19;5033760;28;20045;-79
2021/05/24 01:02:55;;;;;;;1.92;1.67;;;;;;;5.09;79.78;98942.19;5049173;28;20515;-78
2021/05/24 01:05:23;;;;;;;1.83;1.45;;;;;;;5.36;79.67;98937.69;5053830;28;20115;-78
2021/05/24 01:07:49;;;;;;;1.95;1.73;;;;;;;5.32;79.28;98931.75;5053417;28;20102;-78
2021/05/24 01:10:15;;;;;;;3.97;1.60;;;;;;;5.15;79.03;98925.41;5053513;28;20099;-78
2021/05/24 01:12:42;;;;;;;2.30;1.33;;;;;;;5.12;79.06;98931.94;5035283;28;20049;-78
2021/05/24 01:15:10;;;;;;;4.93;1.45;;;;;;;4.93;79.31;98932.94;5034106;28;20103;-79
2021/05/24 01:17:36;;;;;;;3.70;1.48;;;;;;;5.00;80.00;98943.97;5033526;28;20053;-78
2021/05/24 01:20:04;;;;;;;2.85;1.50;;;;;;;5.01;79.68;98947.50;5033433;28;20065;-78
2021/05/24 01:22:33;;;;;;;2.65;1.40;;;;;;;5.08;79.99;98943.19;5033620;28;20041;-78
2021/05/24 01:24:59;;;;;;;1.98;1.50;;;;;;;5.22;79.39;98945.31;5053063;28;20131;-78
2021/05/24 01:27:26;;;;;;;3.80;1.83;;;;;;;5.14;79.43;98931.78;5053525;28;20053;-78
2021/05/24 01:29:52;;;;;;;3.70;1.42;;;;;;;5.06;79.34;98947.88;5053396;28;20060;-78
2021/05/24 01:32:18;;;;;;;1.95;1.02;;;;;;;4.88;79.80;98939.81;5053109;28;20416;-78
2021/05/24 01:34:45;;;;;;;1.65;1.33;;;;;;;4.60;80.28;98921.03;5042565;28;20124;-79
2021/05/24 01:37:11;;;;;;;1.65;1.30;;;;;;;4.55;80.46;98926.88;5033523;28;20258;-78
2021/05/24 01:39:38;;;;;;;1.42;1.27;;;;;;;4.50;81.13;98915.72;5047440;28;20053;-78
2021/05/24 01:42:05;;;;;;;3.20;1.73;;;;;;;4.57;81.30;98918.63;5053286;28;20045;-78
2021/05/24 01:44:33;;;;;;;2.75;1.92;;;;;;;4.63;81.15;98914.50;5043291;28;20057;-78
2021/05/24 01:47:00;;;;;;;1.65;1.30;;;;;;;4.62;81.34;98916.31;5052751;28;20041;-78
2021/05/24 01:49:27;;;;;;;4.28;1.50;;;;;;;4.80;81.53;98913.63;5053098;28;20551;-79
2021/05/24 01:51:53;;;;;;;1.92;1.23;;;;;;;5.00;80.21;98911.66;5053225;28;20071;-79
2021/05/24 01:54:19;;;;;;;1.80;1.38;;;;;;;5.01;79.76;98890.94;5052615;28;20053;-79
2021/05/24 01:56:47;;;;;;;1.88;1.25;;;;;;;4.90;79.45;98876.69;5056310;28;20045;-79
2021/05/24 01:59:13;;;;;;;2.47;1.88;;;;;;;4.77;79.45;98897.78;5057402;28;20060;-79
2021/05/24 02:01:40;;;;;;;1.88;1.75;;;;;;;4.73;80.52;98891.88;5056854;28;20041;-79
2021/05/24 02:04:06;;;;;;;2.78;2.15;;;;;;;4.63;80.87;98904.56;5056685;28;20098;-79
2021/05/24 02:06:33;;;;;;;2.85;1.65;;;;;;;4.65;80.73;98907.09;5056807;28;20053;-79
2021/05/24 02:09:00;;;;;;;7.15;1.80;;;;;;;4.57;80.24;98891.72;5056879;28;20073;-79
2021/05/24 02:11:26;;;;;;;1.90;1.70;;;;;;;4.57;80.67;98880.94;5056597;28;20048;-79
2021/05/24 02:13:53;;;;;;;2.35;1.70;;;;;;;4.81;79.82;98892.94;5056267;28;20110;-79
2021/05/24 02:16:29;;;;;;;3.47;1.65;;;;;;;4.76;79.44;98901.50;5056602;28;20509;-79
2021/05/24 02:18:55;;;;;;;2.35;1.65;;;;;;;4.53;79.89;98891.19;5056529;28;20060;-79
2021/05/24 02:21:22;;;;;;;3.63;1.73;;;;;;;4.33;80.32;98895.00;5056749;28;20049;-78
2021/05/24 02:23:48;;;;;;;2.10;1.42;;;;;;;4.22;81.57;98886.13;5056885;28;20497;-79
2021/05/24 02:26:14;;;;;;;2.42;1.63;;;;;;;4.25;81.47;98880.44;5056621;28;20076;-79
2021/05/24 02:28:40;;;;;;;5.07;1.50;;;;;;;4.40;81.61;98905.00;5056570;28;20053;-79
2021/05/24 02:31:07;;;;;;;3.17;1.98;;;;;;;4.51;81.44;98895.84;5056502;28;20060;-79
2021/05/24 02:33:33;;;;;;;2.40;1.65;;;;;;;4.51;81.16;98887.78;5056434;28;20041;-79
2021/05/24 02:36:00;;;;;;;2.20;1.65;;;;;;;4.49;81.19;98878.19;5056248;28;20083;-79
2021/05/24 02:38:27;;;;;;;3.88;1.90;;;;;;;4.51;80.50;98878.88;5056294;28;20045;-79
2021/05/24 02:40:53;;;;;;;3.95;1.95;;;;;;;4.53;81.23;98877.72;5056233;28;20048;-79
2021/05/24 02:43:19;;;;;;;2.40;1.70;;;;;;;4.48;81.23;98863.03;5056003;28;20408;-79
2021/05/24 02:45:47;;;;;;;2.03;1.77;;;;;;;4.34;81.62;98848.25;5053330;28;20045;-79
2021/05/24 02:48:14;;;;;;;4.13;2.17;;;;;;;4.40;82.08;98853.88;5048330;28;20053;-79
2021/05/24 02:50:40;;;;;;;2.75;1.83;;;;;;;4.34;82.43;98845.56;5056323;28;20053;-79
2021/05/24 02:53:07;;;;;;;3.55;1.85;;;;;;;4.33;83.70;98855.47;5055558;28;20626;-79
2021/05/24 02:55:33;;;;;;;4.70;1.77;;;;;;;4.38;83.43;98845.09;5055474;28;20443;-78
2021/05/24 02:58:00;;;;;;;3.50;1.73;;;;;;;4.53;82.73;98831.09;5056131;28;20049;-79
2021/05/24 03:00:27;;;;;;;2.15;1.50;;;;;;;4.65;82.62;98847.84;5056391;28;20045;-79
2021/05/24 03:02:53;;;;;;;3.15;1.80;;;;;;;4.60;82.48;98819.53;5055540;28;20049;-79
2021/05/24 03:05:22;;;;;;;2.15;1.70;;;;;;;4.79;81.77;98821.22;5055398;28;20056;-79
2021/05/24 03:07:49;;;;;;;2.15;1.42;;;;;;;4.69;81.87;98842.00;5055030;28;20049;-79
2021/05/24 03:10:17;;;;;;;1.83;1.50;;;;;;;4.53;82.57;98826.56;5055604;28;20485;-79
2021/05/24 03:12:44;;;;;;;1.42;1.33;;;;;;;4.67;82.20;98844.03;5055264;28;20048;-79
2021/05/24 03:15:12;;;;;;;1.92;1.40;;;;;;;4.70;82.28;98832.94;5055336;28;20049;-79
2021/05/24 03:17:39;;;;;;;1.50;1.40;;;;;;;4.85;81.63;98844.00;5055670;28;20647;-78
2021/05/24 03:20:08;;;;;;;2.30;1.45;;;;;;;4.88;82.07;98840.16;5055788;28;20477;-78
2021/05/24 03:22:36;;;;;;;2.20;1.70;;;;;;;4.88;81.96;98846.38;5055488;28;20048;-79
2021/05/24 03:25:03;;;;;;;4.50;1.50;;;;;;;4.76;82.05;98845.78;5055043;28;20049;-79
2021/05/24 03:27:30;;;;;;;3.08;1.80;;;;;;;4.57;82.66;98830.63;5055236;28;20049;-79
2021/05/24 03:29:56;;;;;;;2.42;1.30;;;;;;;4.61;82.54;98850.03;5055191;28;20052;-79
2021/05/24 03:32:22;;;;;;;2.25;1.83;;;;;;;4.50;83.03;98855.63;5039905;28;20049;-79
2021/05/24 03:34:49;;;;;;;4.13;1.70;;;;;;;4.60;83.01;98856.41;5034752;28;20088;-79
2021/05/24 03:37:15;;;;;;;3.85;1.42;;;;;;;4.60;83.41;98853.72;5034777;28;20131;-78
2021/05/24 03:39:42;;;;;;;2.53;1.70;;;;;;;4.75;82.59;98854.00;5043551;28;20059;-78
2021/05/24 03:42:09;;;;;;;2.22;1.67;;;;;;;4.74;83.01;98842.41;5068469;28;20063;-79
2021/05/24 03:44:36;;;;;;;1.60;1.50;;;;;;;4.68;83.44;98842.16;5074896;28;20056;-78
2021/05/24 03:47:03;;;;;;;3.03;1.65;;;;;;;4.75;82.92;98843.25;5075185;28;20044;-78
2021/05/24 03:49:29;;;;;;;7.32;1.40;;;;;;;4.88;83.22;98841.00;5074431;28;20049;-78
2021/05/24 03:51:56;;;;;;;3.35;1.33;;;;;;;4.90;83.08;98852.44;5062588;28;20053;-79
2021/05/24 03:54:22;;;;;;;2.35;1.55;;;;;;;4.79;82.96;98837.38;5054784;28;20053;-79
2021/05/24 03:56:49;;;;;;;1.73;1.38;;;;;;;4.77;83.15;98834.00;5045653;28;20053;-79
2021/05/24 03:59:15;;;;;;;3.65;1.67;;;;;;;4.87;82.66;98833.91;5039035;28;20053;-79
2021/05/24 04:01:41;;;;;;;3.28;1.55;;;;;;;4.92;82.96;98833.44;5044612;28;20529;-79
2021/05/24 04:04:08;;;;;;;2.05;1.50;;;;;;;4.87;83.71;98830.38;5054608;28;20064;-78
2021/05/24 04:06:35;;;;;;;4.00;1.40;;;;;;;4.95;83.31;98841.19;5040139;28;20115;-79
2021/05/24 04:09:03;;;;;;;2.97;1.80;;;;;;;5.03;82.75;98852.06;5035155;28;20045;-79
2021/05/24 04:11:29;;;;;;;1.60;1.30;;;;;;;5.02;83.23;98828.81;5054590;28;20056;-79
2021/05/24 04:13:59;;;;;;;2.65;1.30;;;;;;;4.96;83.59;98841.03;5053899;28;20041;-79
2021/05/24 04:16:25;;;;;;;2.97;1.33;;;;;;;5.01;84.08;98842.44;5054232;28;20126;-79
2021/05/24 04:18:51;;;;;;;3.47;1.10;;;;;;;4.99;84.54;98847.97;5054645;28;20056;-79
2021/05/24 04:21:18;;;;;;;2.05;1.40;;;;;;;5.00;84.66;98840.72;5054763;28;20045;-79
2021/05/24 04:23:45;;;;;;;1.50;1.40;;;;;;;5.04;84.25;98832.16;5053883;28;20049;-79
2021/05/24 04:26:12;;;;;;;4.22;2.10;;;;;;;5.13;84.44;98833.94;5034840;28;20577;-79
2021/05/24 04:28:38;;;;;;;4.65;1.30;;;;;;;5.23;84.40;98827.59;5054321;28;20053;-79
2021/05/24 04:31:06;;;;;;;1.88;1.30;;;;;;;5.25;84.29;98828.28;5054483;28;20048;-79
2021/05/24 04:33:32;;;;;;;1.80;1.60;;;;;;;5.33;84.57;98828.34;5044950;28;20060;-79
2021/05/24 04:35:58;;;;;;;1.80;1.58;;;;;;;5.28;84.02;98820.75;5033797;28;20049;-78
2021/05/24 04:38:25;;;;;;;1.45;1.30;;;;;;;5.39;84.04;98832.22;5046978;28;20124;-79
2021/05/24 04:40:51;;;;;;;2.00;1.45;;;;;;;5.51;83.95;98836.38;5054006;28;20057;-79
2021/05/24 04:43:18;;;;;;;2.20;1.25;;;;;;;5.68;83.93;98837.28;5047035;28;20094;-79
2021/05/24 04:45:44;;;;;;;2.60;1.40;;;;;;;5.77;83.27;98827.38;5033714;28;20505;-79
2021/05/24 04:48:11;;;;;;;1.35;1.23;;;;;;;5.89;83.27;98831.47;5038788;28;20045;-79
2021/05/24 04:50:37;;;;;;;1.92;1.30;;;;;;;5.97;83.14;98822.56;5053174;28;20506;-79
2021/05/24 04:53:03;;;;;;;3.65;1.48;;;;;;;6.02;83.25;98810.28;5054385;28;20053;-79
2021/05/24 04:55:30;;;;;;;1.48;1.38;;;;;;;6.03;83.61;98817.34;5053671;28;20049;-79
2021/05/24 04:57:56;;;;;;;4.28;1.50;;;;;;;6.03;83.58;98811.97;5053725;28;20057;-79
2021/05/24 05:00:23;;;;;;;3.67;1.30;;;;;;;6.17;83.79;98805.09;5053202;28;20049;-79
2021/05/24 05:02:49;;;;;;;1.60;1.20;;;;;;;6.27;83.52;98813.03;5053146;28;20049;-78
2021/05/24 05:05:16;;;;;;;4.05;1.40;;;;;;;6.39;82.72;98810.88;5053007;28;20053;-79
2021/05/24 05:07:42;;;;;;;1.42;1.08;;;;;;;6.40;82.61;98801.75;5052747;28;20497;-79
2021/05/24 05:10:10;;;;;;;1.23;1.13;;;;;;;6.48;82.69;98796.34;5052757;28;20048;-79
2021/05/24 05:12:36;;;;;;;3.67;1.67;;;;;;;6.73;81.75;98813.41;5052250;28;20106;-79
2021/05/24 05:15:03;;;;;;;2.13;1.45;;;;;;;6.86;81.42;98807.50;5052551;28;20501;-79
2021/05/24 05:17:29;;;;;;;2.40;1.30;;;;;;;6.95;81.88;98810.22;5053009;28;20045;-79
2021/05/24 05:19:55;;;;;;;1.67;1.10;;;;;;;7.01;82.90;98799.53;5052758;28;20460;-79
2021/05/24 05:22:23;;;;;;;3.55;1.40;;;;;;;6.97;83.61;98798.22;5052944;28;20048;-79
2021/05/24 05:24:49;;;;;;;1.48;1.38;;;;;;;6.91;82.88;98810.53;5052923;28;20126;-79
2021/05/24 05:27:15;;;;;;;2.97;1.25;;;;;;;7.07;81.63;98803.44;5052829;28;20045;-79
2021/05/24 05:29:42;;;;;;;2.28;1.33;;;;;;;7.06;81.54;98780.97;5052385;28;20064;-79
2021/05/24 05:32:08;;;;;;;3.35;2.13;;;;;;;7.17;81.15;98790.56;5053093;28;20048;-79
2021/05/24 05:34:35;;;;;;;1.92;1.30;;;;;;;7.26;81.48;98789.53;5052927;28;20060;-79
2021/05/24 05:37:01;;;;;;;2.67;1.45;;;;;;;7.43;81.61;98789.50;5053222;28;20485;-79
2021/05/24 05:39:28;;;;;;;3.38;1.40;;;;;;;7.60;81.22;98787.56;5053130;28;20055;-79
2021/05/24 05:41:54;;;;;;;3.15;1.48;;;;;;;7.69;80.34;98794.63;5033161;28;20068;-79
2021/05/24 05:44:23;;;;;;;1.48;1.25;;;;;;;7.75;80.70;98771.44;5033121;28;20045;-79
2021/05/24 05:46:50;;;;;;;3.63;1.38;;;;;;;7.93;79.92;98791.00;5042753;28;20053;-79
2021/05/24 05:49:16;;;;;;;1.98;1.30;;;;;;;7.91;79.94;98770.53;5052715;28;20056;-79
2021/05/24 05:51:42;;;;;;;1.65;1.20;;;;;;;8.21;80.09;98795.06;5052668;28;20044;-79
2021/05/24 05:54:09;;;;;;;2.78;1.30;;;;;;;8.14;80.00;98786.78;5052851;28;20045;-79
2021/05/24 05:56:36;;;;;;;4.43;1.40;;;;;;;8.39;80.24;98784.78;5053311;28;20049;-79
2021/05/24 05:59:02;;;;;;;3.88;1.10;;;;;;;8.45;80.11;98778.66;5053096;28;20060;-79
2021/05/24 06:01:28;;;;;;;3.25;1.25;;;;;;;8.47;79.52;98756.81;5053044;28;20053;-79
2021/05/24 06:03:54;;;;;;;2.35;1.52;;;;;;;8.42;78.05;98776.28;5052914;28;20511;-79
2021/05/24 06:06:21;;;;;;;1.83;1.50;;;;;;;8.32;78.83;98763.00;5052486;28;20049;-79
2021/05/24 06:08:47;;;;;;;1.63;1.50;;;;;;;8.63;78.24;98761.25;5053231;28;20041;-79
2021/05/24 06:11:13;;;;;;;2.58;1.60;;;;;;;8.72;79.00;98737.66;5053143;28;20083;-79
2021/05/24 06:13:40;;;;;;;2.25;1.30;;;;;;;8.83;77.24;98751.56;5033992;28;20516;-79
2021/05/24 06:16:07;;;;;;;1.30;1.20;;;;;;;8.96;77.45;98750.97;5032864;28;20053;-79
2021/05/24 06:18:33;;;;;;;2.88;1.60;;;;;;;8.99;77.23;98747.88;5034333;28;20053;-79
2021/05/24 06:20:59;;;;;;;4.80;1.83;;;;;;;8.78;76.58;98736.91;5033020;28;20107;-79
2021/05/24 06:23:26;;;;;;;3.25;1.38;;;;;;;8.91;75.86;98744.41;5033132;28;20103;-79
2021/05/24 06:25:52;;;;;;;3.97;1.77;;;;;;;8.93;75.86;98754.03;5037814;28;20492;-79
2021/05/24 06:28:18;;;;;;;2.58;1.77;;;;;;;9.07;76.72;98741.53;5052635;28;20106;-79
2021/05/24 06:30:45;;;;;;;1.60;1.42;;;;;;;9.62;76.00;98757.50;5052669;28;20049;-79
2021/05/24 06:33:11;;;;;;;4.65;2.45;;;;;;;9.82;74.81;98750.47;5052591;28;20053;-79
2021/05/24 06:35:38;;;;;;;4.55;2.33;;;;;;;9.90;74.03;98746.81;5052416;28;20052;-79
2021/05/24 06:38:04;;;;;;;5.88;1.95;;;;;;;10.02;73.88;98752.59;5052957;28;20091;-79
2021/05/24 06:40:31;;;;;;;2.88;1.70;;;;;;;9.88;74.12;98757.84;5052549;28;20049;-79
2021/05/24 06:42:57;;;;;;;8.38;2.00;;;;;;;10.20;73.85;98757.59;5054576;28;20049;-79
2021/05/24 06:45:24;;;;;;;4.03;2.17;;;;;;;9.96;74.33;98769.66;5055896;28;20045;-79
2021/05/24 06:47:51;;;;;;;4.30;1.85;;;;;;;10.08;74.35;98751.81;5056324;28;20041;-79
2021/05/24 06:50:17;;;;;;;7.22;1.88;;;;;;;10.37;72.91;98763.63;5055622;28;20053;-79
2021/05/24 06:52:44;;;;;;;3.75;1.75;;;;;;;10.34;73.37;98745.88;5036341;28;20049;-79
2021/05/24 06:55:11;;;;;;;4.68;1.77;;;;;;;10.51;72.10;98753.72;5036056;28;20041;-79
2021/05/24 06:57:37;;;;;;;3.00;1.60;;;;;;;10.49;71.75;98747.66;5055291;28;20045;-79
2021/05/24 07:00:06;;;;;;;2.35;1.60;;;;;;;10.60;71.99;98749.88;5055952;28;20053;-79
2021/05/24 07:02:33;;;;;;;3.05;1.70;;;;;;;10.91;71.68;98749.47;5055790;28;20056;-79
2021/05/24 07:05:00;;;;;;;4.13;2.15;;;;;;;11.13;72.23;98749.44;5055821;28;20072;-79
2021/05/24 07:07:26;;;;;;;5.03;1.80;;;;;;;11.19;71.37;98739.66;5055654;28;20041;-79
2021/05/24 07:10:06;;;;;;;4.70;1.98;;;;;;;11.42;71.91;98737.47;5055973;28;20049;-79
2021/05/24 07:12:32;;;;;;;2.22;1.63;;;;;;;11.57;73.19;98731.06;5055460;28;20503;-79
2021/05/24 07:14:59;;;;;;;5.93;2.35;;;;;;;12.11;71.51;98735.72;5055458;28;20053;-79
2021/05/24 07:17:25;;;;;;;3.08;1.35;;;;;;;12.44;70.62;98726.75;5060899;28;20057;-79
2021/05/24 07:19:51;;;;;;;1.70;1.40;;;;;;;12.62;69.40;98731.59;5055473;28;20068;-80
2021/05/24 07:22:18;;;;;;;3.83;1.40;;;;;;;12.73;69.72;98725.50;5047180;28;20050;-79
2021/05/24 07:24:45;;;;;;;3.67;1.42;;;;;;;13.14;69.08;98709.94;5035007;28;20045;-79
2021/05/24 07:27:11;;;;;;;1.30;1.20;;;;;;;13.47;67.17;98725.44;5035387;28;20410;-79
2021/05/24 07:29:37;;;;;;;3.50;1.10;;;;;;;13.72;63.72;98722.03;5035660;28;20042;-79
2021/05/24 07:32:09;;;;;;;1.70;1.00;;;;;;;14.10;63.95;98722.03;5044382;28;20515;-79
2021/05/24 07:34:35;;;;;;;2.25;1.17;;;;;;;14.69;61.85;98719.16;5055240;28;20560;-79
2021/05/24 07:37:02;;;;;;;1.67;0.88;;;;;;;14.69;59.49;98727.34;5055455;28;20397;-79
2021/05/24 07:39:29;;;;;;;2.03;0.80;;;;;;;14.92;56.87;98712.22;5055197;28;20049;-80
2021/05/24 07:41:56;;;;;;;1.40;0.65;;;;;;;14.80;54.94;98725.81;5055065;28;20057;-80
2021/05/24 07:44:22;;;;;;;7.15;0.80;;;;;;;14.47;56.02;98732.34;5054336;28;20057;-79
2021/05/24 07:46:48;;;;;;;1.73;0.80;;;;;;;14.53;57.04;98720.53;5055375;28;20382;-79
2021/05/24 07:49:17;;;;;;;0.75;0.68;;;;;;;14.62;56.99;98718.38;5047209;28;20495;-79
2021/05/24 07:51:44;;;;;;;0.50;0.50;;;;;;;14.77;54.62;98710.69;5055001;28;20049;-80
2021/05/24 07:54:10;;;;;;;0.77;0.70;;;;;;;14.95;57.62;98709.03;5054472;28;20041;-80
2021/05/24 07:56:37;;;;;;;5.88;0.93;;;;;;;15.06;56.53;98702.84;5054922;28;20481;-80
2021/05/24 07:59:05;;;;;;;2.40;0.60;;;;;;;15.11;53.31;98703.00;5054743;28;20071;-80
2021/05/24 08:01:31;;;;;;;2.65;0.60;;;;;;;15.30;55.17;98701.13;5054750;28;20080;-80
2021/05/24 08:04:10;;;;;;;0.70;0.50;;;;;;;15.22;55.00;98695.97;5053043;28;20484;-79
2021/05/24 08:06:40;;;;;;;0.88;0.60;;;;;;;15.17;54.90;98677.44;5050848;28;20049;-79
2021/05/24 08:09:07;;;;;;;1.52;0.80;;;;;;;15.19;55.54;98689.03;5054512;28;20041;-80
2021/05/24 08:11:35;;;;;;;2.90;0.50;;;;;;;15.04;55.68;98691.28;5054833;28;20053;-80
2021/05/24 08:14:03;;;;;;;2.28;0.77;;;;;;;15.13;54.41;98680.84;5054217;28;20048;-80
2021/05/24 08:16:29;;;;;;;3.13;0.80;;;;;;;15.15;54.93;98686.97;5054665;28;20041;-80
2021/05/24 08:18:57;;;;;;;0.40;0.40;;;;;;;15.07;53.21;98687.25;5054135;28;20049;-79
2021/05/24 08:21:24;;;;;;;1.85;0.80;;;;;;;14.97;54.54;98685.88;5054239;28;20049;-79
2021/05/24 08:23:50;;;;;;;0.75;0.70;;;;;;;15.10;55.61;98695.88;5054164;28;20056;-79
2021/05/24 08:26:16;;;;;;;1.48;0.63;;;;;;;15.15;55.63;98684.22;5053898;28;20083;-80
2021/05/24 08:28:42;;;;;;;1.35;0.70;;;;;;;14.95;55.46;98685.25;5049797;28;20386;-79
2021/05/24 08:31:09;;;;;;;1.60;0.80;;;;;;;15.36;54.77;98686.50;5034327;28;20049;-80
2021/05/24 08:33:36;;;;;;;0.90;0.55;;;;;;;15.64;54.20;98689.78;5034388;28;20054;-80
2021/05/24 08:36:03;;;;;;;2.08;0.70;;;;;;;15.65;52.75;98680.50;5033997;28;20045;-80
2021/05/24 08:38:30;;;;;;;2.88;0.82;;;;;;;15.65;52.35;98664.06;5037073;28;20053;-80
2021/05/24 08:40:57;;;;;;;1.80;0.85;;;;;;;15.90;53.41;98675.78;5053990;28;20492;-80
2021/05/24 08:43:24;;;;;;;5.22;0.90;;;;;;;16.11;54.09;98668.13;5053740;28;20053;-80
2021/05/24 08:45:50;;;;;;;0.95;0.82;;;;;;;16.09;52.14;98656.53;5053737;28;20059;-80
2021/05/24 08:48:19;;;;;;;1.73;0.70;;;;;;;15.83;50.44;98655.84;5052919;28;20053;-80
2021/05/24 08:50:45;;;;;;;3.35;0.80;;;;;;;15.74;50.39;98643.50;5034318;28;20164;-80
2021/05/24 08:53:12;;;;;;;1.10;0.63;;;;;;;15.71;53.23;98646.69;5034043;28;20053;-80
2021/05/24 08:55:41;;;;;;;1.45;0.60;;;;;;;16.12;53.02;98661.53;5050699;28;20099;-80
2021/05/24 08:58:08;;;;;;;2.55;0.88;;;;;;;16.16;50.58;98643.56;5053740;28;20527;-80
2021/05/24 09:00:34;;;;;;;1.95;1.27;;;;;;;16.59;50.83;98644.34;5040659;28;20049;-80
2021/05/24 09:03:01;;;;;;;2.20;0.80;;;;;;;16.72;50.60;98640.56;5035979;28;20488;-80
2021/05/24 09:05:32;;;;;;;2.53;0.55;;;;;;;16.86;53.29;98641.16;5052890;28;20400;-80
2021/05/24 09:08:00;;;;;;;1.50;0.80;;;;;;;16.83;52.03;98641.63;5053159;28;20052;-80
2021/05/24 09:10:28;;;;;;;3.03;1.52;;;;;;;17.34;50.89;98637.31;5053394;28;20045;-80
2021/05/24 09:13:08;;;;;;;5.07;0.82;;;;;;;17.13;48.09;98639.63;5045175;28;20485;-80
2021/05/24 09:15:50;;;;;;;;;;;;;;;17.34;51.06;98631.81;5033715;28;20107;-80
2021/05/24 09:18:19;;;;;;;3.97;0.90;;;;;;;17.55;49.58;98624.84;5033477;28;20356;-80
2021/05/24 09:20:50;;;;;;;2.58;0.70;;;;;;;17.36;49.25;98623.34;5033634;28;20049;-82
2021/05/24 09:23:18;;;;;;;3.85;1.00;;;;;;;17.45;49.93;98619.97;5052761;28;20048;-81
2021/05/24 09:26:00;;;;;;;1.80;0.70;;;;;;;17.59;49.95;98616.97;5046430;28;20045;-79
2021/05/24 09:28:42;;;;;;;0.85;0.57;;;;;;;17.81;48.24;98619.84;5032740;28;20103;-79
2021/05/24 09:31:12;;;;;;;1.30;0.73;;;;;;;17.94;48.08;98616.00;5031968;28;20494;-80
2021/05/24 09:33:39;;;;;;;;;;;;;;;17.98;49.42;98612.50;5033555;28;20057;-79
2021/05/24 09:36:07;;;;;;;1.45;0.70;;;;;;;17.71;48.81;98604.00;5032713;28;19975;-80
2021/05/24 09:38:41;;;;;;;2.22;0.65;;;;;;;17.99;51.01;98607.84;5033541;28;20080;-79
2021/05/24 09:41:09;;;;;;;0.55;0.52;;;;;;;17.99;46.51;98603.19;5033347;28;20505;-79
2021/05/24 09:43:37;;;;;;;2.38;0.50;;;;;;;17.91;45.60;98602.75;5034439;28;20543;-79
2021/05/24 09:46:09;;;;;;;6.53;0.77;;;;;;;18.12;47.14;98598.44;5050140;28;20056;-79
2021/05/24 09:48:37;;;;;;;0.50;0.50;;;;;;;18.16;47.21;98592.22;5040200;28;20073;-79
2021/05/24 09:51:09;;;;;;;0.85;0.50;;;;;;;18.24;47.46;98595.63;5049521;28;20088;-78
2021/05/24 09:53:39;;;;;;;1.05;0.50;;;;;;;18.26;45.60;98594.31;5050530;28;20485;-79
2021/05/24 09:56:07;;;;;;;0.63;0.35;;;;;;;18.29;45.13;98588.31;5048523;28;20063;-78
2021/05/24 09:58:34;;;;;;;2.00;0.60;;;;;;;18.24;44.34;98588.22;5047563;28;20452;-78
2021/05/24 10:01:14;;;;;;;1.00;0.50;;;;;;;18.53;45.83;98577.97;5050298;28;20124;-78
2021/05/24 10:03:41;;;;;;;0.90;0.60;;;;;;;18.61;47.93;98573.09;5047255;28;20497;-79
2021/05/24 10:06:08;;;;;;;1.05;0.50;;;;;;;18.74;45.23;98576.38;5050574;28;20064;-79
2021/05/24 10:08:35;;;;;;;1.05;0.77;;;;;;;18.81;46.28;98572.59;5048830;28;20048;-79
2021/05/24 10:11:02;;;;;;;1.08;0.60;;;;;;;18.69;45.17;98564.44;5049424;28;20045;-79
2021/05/24 10:13:29;;;;;;;1.67;0.40;;;;;;;18.83;43.45;98554.72;5044784;28;20049;-79
2021/05/24 10:16:00;;;;;;;1.35;0.40;;;;;;;19.00;43.22;98567.63;5050059;28;20558;-80
2021/05/24 10:18:28;;;;;;;1.33;0.60;;;;;;;18.82;45.68;98557.72;5053761;28;20500;-79
2021/05/24 10:20:54;;;;;;;1.73;0.88;;;;;;;19.01;45.09;98553.59;5054769;28;20496;-79
2021/05/24 10:23:22;;;;;;;0.43;0.43;;;;;;;19.06;44.56;98539.91;5054615;28;20049;-79
2021/05/24 10:25:50;;;;;;;1.95;0.68;;;;;;;18.85;43.98;98544.31;5051819;28;20048;-79
2021/05/24 10:28:16;;;;;;;1.60;0.75;;;;;;;19.02;43.06;98533.25;5034435;28;20076;-80
2021/05/24 10:30:43;;;;;;;2.85;0.77;;;;;;;19.15;44.50;98528.44;5045356;28;20045;-79
2021/05/24 10:33:13;;;;;;;1.27;0.55;;;;;;;19.25;44.25;98540.44;5054561;28;20056;-79
2021/05/24 10:35:41;;;;;;;2.80;0.60;;;;;;;19.27;45.05;98532.75;5051431;28;20542;-79
2021/05/24 10:38:27;;;;;;;1.50;0.80;;;;;;;19.12;44.45;98532.56;5048375;28;20049;-79
2021/05/24 10:41:03;;;;;;;2.90;0.65;;;;;;;19.05;43.56;98534.66;5054656;28;20049;-79
2021/05/24 10:43:39;;;;;;;1.52;0.60;;;;;;;19.09;45.28;98528.38;5052773;28;20056;-79
2021/05/24 10:46:33;;;;;;;4.22;0.60;;;;;;;19.09;43.63;98522.88;5038164;28;20392;-79
2021/05/24 10:49:02;;;;;;;1.42;0.60;;;;;;;19.42;43.89;98531.25;5047940;28;20108;-79
2021/05/24 10:51:58;;;;;;;2.90;0.63;;;;;;;19.33;44.39;98532.78;5034298;28;20047;-79
2021/05/24 10:54:29;;;;;;;3.53;0.50;;;;;;;19.07;41.76;98527.81;5033591;28;20056;-80
2021/05/24 10:57:19;;;;;;;1.48;0.50;;;;;;;19.27;44.14;98527.22;5034430;28;20497;-80
2021/05/24 10:59:50;;;;;;;0.95;0.77;;;;;;;19.32;45.10;98518.19;5053655;28;20053;-79
2021/05/24 11:02:26;;;;;;;1.30;0.57;;;;;;;19.45;44.99;98516.94;5056324;28;20140;-79
2021/05/24 11:04:55;;;;;;;1.27;0.98;;;;;;;19.50;45.40;98502.41;5051108;28;20052;-79
2021/05/24 11:07:33;;;;;;;1.55;0.80;;;;;;;19.53;44.97;98507.41;5054364;28;20045;-79
2021/05/24 11:13:29;;;;;;;2.15;0.50;;;;;;;19.49;45.81;98492.47;5033708;28;20121;-79
2021/05/24 11:16:10;;;;;;;1.10;0.60;;;;;;;19.54;45.32;98498.00;5051529;28;20059;-80
2021/05/24 11:18:43;;;;;;;3.63;0.70;;;;;;;19.37;45.37;98498.13;5053537;28;20132;-79
2021/05/24 11:21:26;;;;;;;0.80;0.50;;;;;;;19.50;46.90;98499.66;5053505;28;20052;-80
2021/05/24 11:26:38;;;;;;;2.58;0.60;;;;;;;19.57;45.81;98487.31;5037401;28;20045;-81
2021/05/24 11:29:12;;;;;;;2.42;0.57;;;;;;;19.55;45.29;98483.97;5033505;28;20099;-81
2021/05/24 11:31:45;;;;;;;1.10;0.50;;;;;;;19.27;45.49;98468.53;5045047;28;20068;-81
2021/05/24 11:34:13;;;;;;;1.88;0.60;;;;;;;19.36;45.54;98463.38;5053297;28;20052;-81
2021/05/24 11:36:50;;;;;;;1.80;0.63;;;;;;;19.75;45.26;98455.78;5047757;28;20390;-81
2021/05/24 11:39:19;;;;;;;1.52;0.75;;;;;;;20.50;45.68;98452.19;5045177;28;20076;-81
2021/05/24 11:41:51;;;;;;;1.50;1.20;;;;;;;20.99;44.88;98456.63;5045138;28;20144;-81
2021/05/24 11:44:19;;;;;;;1.33;0.95;;;;;;;20.77;43.79;98463.13;5053262;28;20634;-80
2021/05/24 11:46:47;;;;;;;0.80;0.52;;;;;;;20.78;43.60;98456.53;5053177;28;20099;-81
2021/05/24 11:49:16;;;;;;;0.40;0.40;;;;;;;20.69;42.25;98458.13;5053463;28;20048;-80